sensor_id;sensor_type;location;lat;lon;timestamp;P1;P2;P0
27143;PMS1003;14672;50.250;8.312;2024-02-15T00:00:36;26.50;24.25;11.00
27143;PMS1003;14672;50.250;8.312;2024-02-15T00:03:03;25.75;24.50;10.50
27143;PMS1003;14672;50.250;8.312;2024-02-15T00:05:33;23.00;22.50;10.50
27143;PMS1003;14672;50.250;8.312;2024-02-15T00:08:01;28.75;25.25;10.25
27143;PMS1003;14672;50.250;8.312;2024-02-15T00:10:28;20.25;19.00;10.00
27143;PMS1003;14672;50.250;8.312;2024-02-15T00:12:53;24.67;21.00;10.33
27143;PMS1003;14672;50.250;8.312;2024-02-15T00:15:20;21.00;20.25;8.75
27143;PMS1003;14672;50.250;8.312;2024-02-15T00:17:45;27.00;24.33;10.67
27143;PMS1003;14672;50.250;8.312;2024-02-15T00:20:15;23.25;22.25;9.75
27143;PMS1003;14672;50.250;8.312;2024-02-15T00:22:42;32.25;26.75;10.25
27143;PMS1003;14672;50.250;8.312;2024-02-15T00:25:09;23.50;20.50;9.00
27143;PMS1003;14672;50.250;8.312;2024-02-15T00:27:36;25.00;23.25;11.00
27143;PMS1003;14672;50.250;8.312;2024-02-15T00:30:02;25.00;23.50;10.50
27143;PMS1003;14672;50.250;8.312;2024-02-15T00:32:33;26.50;24.50;10.50
27143;PMS1003;14672;50.250;8.312;2024-02-15T00:34:59;23.25;21.75;12.50
27143;PMS1003;14672;50.250;8.312;2024-02-15T00:37:25;23.00;20.33;8.33
27143;PMS1003;14672;50.250;8.312;2024-02-15T00:39:51;23.67;23.67;11.00
27143;PMS1003;14672;50.250;8.312;2024-02-15T00:42:16;20.33;20.00;10.67
27143;PMS1003;14672;50.250;8.312;2024-02-15T00:44:42;22.67;22.33;11.00
27143;PMS1003;14672;50.250;8.312;2024-02-15T00:47:09;28.00;24.00;10.33
27143;PMS1003;14672;50.250;8.312;2024-02-15T00:49:36;28.00;26.25;11.00
27143;PMS1003;14672;50.250;8.312;2024-02-15T00:52:02;24.67;23.00;11.00
27143;PMS1003;14672;50.250;8.312;2024-02-15T00:54:28;21.67;20.00;11.00
27143;PMS1003;14672;50.250;8.312;2024-02-15T00:56:54;26.00;23.33;11.00
27143;PMS1003;14672;50.250;8.312;2024-02-15T00:59:19;27.00;25.00;10.00
27143;PMS1003;14672;50.250;8.312;2024-02-15T01:01:45;20.33;19.00;8.67
27143;PMS1003;14672;50.250;8.312;2024-02-15T01:04:13;23.25;20.25;10.00
27143;PMS1003;14672;50.250;8.312;2024-02-15T01:06:38;17.75;17.25;9.00
27143;PMS1003;14672;50.250;8.312;2024-02-15T01:09:04;25.33;22.33;10.00
27143;PMS1003;14672;50.250;8.312;2024-02-15T01:11:30;28.50;26.25;12.75
27143;PMS1003;14672;50.250;8.312;2024-02-15T01:13:58;25.50;25.00;10.25
27143;PMS1003;14672;50.250;8.312;2024-02-15T01:16:24;22.00;20.00;9.33
27143;PMS1003;14672;50.250;8.312;2024-02-15T01:18:50;25.00;20.75;10.75
27143;PMS1003;14672;50.250;8.312;2024-02-15T01:21:16;25.00;19.67;9.00
27143;PMS1003;14672;50.250;8.312;2024-02-15T01:23:42;23.00;23.00;13.00
27143;PMS1003;14672;50.250;8.312;2024-02-15T01:26:09;24.00;22.75;10.75
27143;PMS1003;14672;50.250;8.312;2024-02-15T01:28:35;29.50;26.25;11.25
27143;PMS1003;14672;50.250;8.312;2024-02-15T01:31:01;21.67;21.67;10.67
27143;PMS1003;14672;50.250;8.312;2024-02-15T01:33:27;27.00;27.00;11.67
27143;PMS1003;14672;50.250;8.312;2024-02-15T01:35:53;24.67;22.00;10.33
27143;PMS1003;14672;50.250;8.312;2024-02-15T01:38:18;22.00;19.00;10.00
27143;PMS1003;14672;50.250;8.312;2024-02-15T01:40:46;21.67;20.67;10.33
27143;PMS1003;14672;50.250;8.312;2024-02-15T01:43:12;18.50;17.00;9.00
27143;PMS1003;14672;50.250;8.312;2024-02-15T01:45:39;21.50;20.75;10.25
27143;PMS1003;14672;50.250;8.312;2024-02-15T01:48:05;25.00;23.50;11.00
27143;PMS1003;14672;50.250;8.312;2024-02-15T01:50:32;21.25;20.75;10.75
27143;PMS1003;14672;50.250;8.312;2024-02-15T01:52:59;28.75;28.25;14.00
27143;PMS1003;14672;50.250;8.312;2024-02-15T01:55:30;26.25;24.00;12.00
27143;PMS1003;14672;50.250;8.312;2024-02-15T01:57:56;26.33;24.33;10.00
27143;PMS1003;14672;50.250;8.312;2024-02-15T02:00:22;34.00;28.33;14.00
27143;PMS1003;14672;50.250;8.312;2024-02-15T02:02:49;25.50;25.00;14.75
27143;PMS1003;14672;50.250;8.312;2024-02-15T02:05:15;32.75;32.00;14.50
27143;PMS1003;14672;50.250;8.312;2024-02-15T02:07:41;30.00;28.50;14.00
27143;PMS1003;14672;50.250;8.312;2024-02-15T02:10:07;30.50;28.75;14.00
27143;PMS1003;14672;50.250;8.312;2024-02-15T02:12:36;26.00;25.25;11.25
27143;PMS1003;14672;50.250;8.312;2024-02-15T02:15:05;27.25;24.75;11.25
27143;PMS1003;14672;50.250;8.312;2024-02-15T02:17:32;23.00;23.00;11.00
27143;PMS1003;14672;50.250;8.312;2024-02-15T02:20:00;24.75;23.75;10.50
27143;PMS1003;14672;50.250;8.312;2024-02-15T02:22:33;26.25;24.25;13.00
27143;PMS1003;14672;50.250;8.312;2024-02-15T02:25:10;30.25;28.50;13.00
27143;PMS1003;14672;50.250;8.312;2024-02-15T02:27:38;27.50;26.75;13.00
27143;PMS1003;14672;50.250;8.312;2024-02-15T02:30:15;36.75;33.00;13.00
27143;PMS1003;14672;50.250;8.312;2024-02-15T02:32:44;31.00;25.25;11.75
27143;PMS1003;14672;50.250;8.312;2024-02-15T02:35:13;28.75;25.75;13.00
27143;PMS1003;14672;50.250;8.312;2024-02-15T02:37:41;32.75;28.50;13.00
27143;PMS1003;14672;50.250;8.312;2024-02-15T02:40:08;29.75;25.75;13.00
27143;PMS1003;14672;50.250;8.312;2024-02-15T02:45:26;34.00;32.50;13.25
27143;PMS1003;14672;50.250;8.312;2024-02-15T02:47:53;29.00;27.00;11.75
27143;PMS1003;14672;50.250;8.312;2024-02-15T02:50:20;30.00;26.25;14.50
27143;PMS1003;14672;50.250;8.312;2024-02-15T02:52:47;31.00;29.75;14.75
27143;PMS1003;14672;50.250;8.312;2024-02-15T02:55:13;25.67;24.33;11.00
27143;PMS1003;14672;50.250;8.312;2024-02-15T02:57:40;34.75;30.00;14.75
27143;PMS1003;14672;50.250;8.312;2024-02-15T03:00:11;23.25;21.50;11.50
27143;PMS1003;14672;50.250;8.312;2024-02-15T03:02:44;34.25;25.25;10.75
27143;PMS1003;14672;50.250;8.312;2024-02-15T03:05:11;25.50;24.75;12.50
27143;PMS1003;14672;50.250;8.312;2024-02-15T03:07:38;30.50;21.50;11.50
27143;PMS1003;14672;50.250;8.312;2024-02-15T03:10:06;29.25;26.25;11.50
27143;PMS1003;14672;50.250;8.312;2024-02-15T03:12:37;29.50;25.50;10.50
27143;PMS1003;14672;50.250;8.312;2024-02-15T03:15:03;24.75;20.75;11.00
27143;PMS1003;14672;50.250;8.312;2024-02-15T03:17:33;29.25;27.00;13.00
27143;PMS1003;14672;50.250;8.312;2024-02-15T03:19:58;24.00;24.00;10.33
27143;PMS1003;14672;50.250;8.312;2024-02-15T03:22:24;29.00;25.67;13.00
27143;PMS1003;14672;50.250;8.312;2024-02-15T03:24:51;24.00;20.75;9.50
27143;PMS1003;14672;50.250;8.312;2024-02-15T03:27:17;32.00;29.50;11.50
27143;PMS1003;14672;50.250;8.312;2024-02-15T03:29:43;20.33;20.00;10.67
27143;PMS1003;14672;50.250;8.312;2024-02-15T03:32:08;22.67;22.67;10.00
27143;PMS1003;14672;50.250;8.312;2024-02-15T03:34:36;37.50;30.00;13.00
27143;PMS1003;14672;50.250;8.312;2024-02-15T03:37:04;24.25;23.25;13.00
27143;PMS1003;14672;50.250;8.312;2024-02-15T03:39:30;26.00;25.33;13.00
27143;PMS1003;14672;50.250;8.312;2024-02-15T03:41:58;26.25;23.50;12.50
27143;PMS1003;14672;50.250;8.312;2024-02-15T03:44:23;31.00;28.00;11.00
27143;PMS1003;14672;50.250;8.312;2024-02-15T03:46:51;26.25;25.25;13.00
27143;PMS1003;14672;50.250;8.312;2024-02-15T03:49:18;30.00;29.00;14.75
27143;PMS1003;14672;50.250;8.312;2024-02-15T03:51:44;30.67;28.33;15.00
27143;PMS1003;14672;50.250;8.312;2024-02-15T03:54:11;31.00;30.00;15.33
27143;PMS1003;14672;50.250;8.312;2024-02-15T03:56:46;33.75;30.50;13.50
27143;PMS1003;14672;50.250;8.312;2024-02-15T03:59:20;35.75;33.50;15.75
27143;PMS1003;14672;50.250;8.312;2024-02-15T04:01:51;35.00;32.25;15.75
27143;PMS1003;14672;50.250;8.312;2024-02-15T04:04:22;40.50;36.75;16.00
27143;PMS1003;14672;50.250;8.312;2024-02-15T04:06:48;35.00;28.00;13.00
27143;PMS1003;14672;50.250;8.312;2024-02-15T04:09:17;39.50;33.00;17.50
27143;PMS1003;14672;50.250;8.312;2024-02-15T04:11:45;32.50;30.25;15.50
27143;PMS1003;14672;50.250;8.312;2024-02-15T04:14:22;32.75;26.75;13.00
27143;PMS1003;14672;50.250;8.312;2024-02-15T04:16:49;31.00;28.25;14.50
27143;PMS1003;14672;50.250;8.312;2024-02-15T04:19:14;35.67;31.00;14.67
27143;PMS1003;14672;50.250;8.312;2024-02-15T04:21:40;32.00;28.00;14.67
27143;PMS1003;14672;50.250;8.312;2024-02-15T04:24:09;29.25;27.00;14.75
27143;PMS1003;14672;50.250;8.312;2024-02-15T04:26:35;33.75;30.75;12.25
27143;PMS1003;14672;50.250;8.312;2024-02-15T04:29:02;28.25;26.50;12.75
27143;PMS1003;14672;50.250;8.312;2024-02-15T04:31:28;29.50;24.50;12.75
27143;PMS1003;14672;50.250;8.312;2024-02-15T04:33:55;26.33;25.67;13.00
27143;PMS1003;14672;50.250;8.312;2024-02-15T04:36:21;37.75;30.50;15.75
27143;PMS1003;14672;50.250;8.312;2024-02-15T04:38:51;31.25;28.50;13.75
27143;PMS1003;14672;50.250;8.312;2024-02-15T04:41:17;27.75;27.75;13.50
27143;PMS1003;14672;50.250;8.312;2024-02-15T04:43:48;24.75;23.75;11.00
27143;PMS1003;14672;50.250;8.312;2024-02-15T04:46:15;25.00;23.75;13.00
27143;PMS1003;14672;50.250;8.312;2024-02-15T04:48:41;26.33;25.00;13.00
27143;PMS1003;14672;50.250;8.312;2024-02-15T04:51:08;28.00;23.75;11.00
27143;PMS1003;14672;50.250;8.312;2024-02-15T04:53:38;21.00;20.00;10.00
27143;PMS1003;14672;50.250;8.312;2024-02-15T04:56:07;25.25;23.00;10.00
27143;PMS1003;14672;50.250;8.312;2024-02-15T04:58:39;30.25;25.25;11.50
27143;PMS1003;14672;50.250;8.312;2024-02-15T05:01:17;23.00;22.50;11.00
27143;PMS1003;14672;50.250;8.312;2024-02-15T05:03:43;24.75;23.75;13.00
27143;PMS1003;14672;50.250;8.312;2024-02-15T05:06:09;30.00;26.50;14.75
27143;PMS1003;14672;50.250;8.312;2024-02-15T05:08:38;31.75;26.50;12.75
27143;PMS1003;14672;50.250;8.312;2024-02-15T05:11:08;32.00;29.25;14.50
27143;PMS1003;14672;50.250;8.312;2024-02-15T05:13:46;27.50;26.50;13.00
27143;PMS1003;14672;50.250;8.312;2024-02-15T05:16:12;28.75;26.25;14.00
27143;PMS1003;14672;50.250;8.312;2024-02-15T05:18:38;28.25;27.00;12.75
27143;PMS1003;14672;50.250;8.312;2024-02-15T05:21:05;29.75;27.00;13.25
27143;PMS1003;14672;50.250;8.312;2024-02-15T05:23:35;27.00;23.75;13.25
27143;PMS1003;14672;50.250;8.312;2024-02-15T05:26:11;33.50;30.75;14.75
27143;PMS1003;14672;50.250;8.312;2024-02-15T05:28:48;30.25;30.25;17.25
27143;PMS1003;14672;50.250;8.312;2024-02-15T05:31:15;33.50;31.50;14.25
27143;PMS1003;14672;50.250;8.312;2024-02-15T05:33:46;38.25;30.25;16.50
27143;PMS1003;14672;50.250;8.312;2024-02-15T05:36:12;34.75;31.75;13.75
27143;PMS1003;14672;50.250;8.312;2024-02-15T05:38:39;34.25;31.75;16.50
27143;PMS1003;14672;50.250;8.312;2024-02-15T05:41:06;30.50;25.75;13.25
27143;PMS1003;14672;50.250;8.312;2024-02-15T05:43:33;40.75;37.75;16.25
27143;PMS1003;14672;50.250;8.312;2024-02-15T05:46:02;36.75;33.25;17.25
27143;PMS1003;14672;50.250;8.312;2024-02-15T05:48:28;33.00;32.25;16.75
27143;PMS1003;14672;50.250;8.312;2024-02-15T05:50:55;33.00;31.00;16.00
27143;PMS1003;14672;50.250;8.312;2024-02-15T05:53:22;33.00;31.00;15.75
27143;PMS1003;14672;50.250;8.312;2024-02-15T05:55:50;30.00;30.00;14.75
27143;PMS1003;14672;50.250;8.312;2024-02-15T05:58:16;27.67;23.33;13.00
27143;PMS1003;14672;50.250;8.312;2024-02-15T06:00:42;31.50;28.75;13.50
27143;PMS1003;14672;50.250;8.312;2024-02-15T06:03:10;30.50;28.25;14.50
27143;PMS1003;14672;50.250;8.312;2024-02-15T06:05:38;30.00;27.00;13.00
27143;PMS1003;14672;50.250;8.312;2024-02-15T06:08:05;27.33;25.33;11.33
27143;PMS1003;14672;50.250;8.312;2024-02-15T06:10:31;26.25;25.00;14.25
27143;PMS1003;14672;50.250;8.312;2024-02-15T06:12:57;31.25;29.25;14.25
27143;PMS1003;14672;50.250;8.312;2024-02-15T06:15:24;27.25;26.00;12.75
27143;PMS1003;14672;50.250;8.312;2024-02-15T06:17:51;26.50;24.75;13.00
27143;PMS1003;14672;50.250;8.312;2024-02-15T06:20:17;32.25;29.00;13.00
27143;PMS1003;14672;50.250;8.312;2024-02-15T06:22:46;36.00;31.00;13.75
27143;PMS1003;14672;50.250;8.312;2024-02-15T06:25:12;31.00;29.50;14.75
27143;PMS1003;14672;50.250;8.312;2024-02-15T06:27:40;29.25;26.00;12.50
27143;PMS1003;14672;50.250;8.312;2024-02-15T06:30:10;30.00;27.75;15.25
27143;PMS1003;14672;50.250;8.312;2024-02-15T06:32:56;33.25;29.75;15.50
27143;PMS1003;14672;50.250;8.312;2024-02-15T06:35:41;34.50;32.50;17.75
27143;PMS1003;14672;50.250;8.312;2024-02-15T06:38:26;27.25;26.75;15.50
27143;PMS1003;14672;50.250;8.312;2024-02-15T06:41:10;30.25;28.50;15.25
27143;PMS1003;14672;50.250;8.312;2024-02-15T06:43:40;34.50;30.75;15.50
27143;PMS1003;14672;50.250;8.312;2024-02-15T06:46:06;39.00;33.00;15.67
27143;PMS1003;14672;50.250;8.312;2024-02-15T06:48:33;29.75;28.00;16.25
27143;PMS1003;14672;50.250;8.312;2024-02-15T06:50:58;34.00;31.33;16.00
27143;PMS1003;14672;50.250;8.312;2024-02-15T06:53:27;34.50;32.75;17.50
27143;PMS1003;14672;50.250;8.312;2024-02-15T06:55:54;36.75;32.50;18.00
27143;PMS1003;14672;50.250;8.312;2024-02-15T06:58:20;34.00;32.00;15.33
27143;PMS1003;14672;50.250;8.312;2024-02-15T07:00:47;36.00;33.00;16.00
27143;PMS1003;14672;50.250;8.312;2024-02-15T07:03:15;40.75;32.00;18.00
27143;PMS1003;14672;50.250;8.312;2024-02-15T07:05:42;32.00;30.00;16.00
27143;PMS1003;14672;50.250;8.312;2024-02-15T07:08:08;39.75;36.75;17.50
27143;PMS1003;14672;50.250;8.312;2024-02-15T07:10:40;36.75;33.00;20.25
27143;PMS1003;14672;50.250;8.312;2024-02-15T07:13:06;36.25;33.50;16.25
27143;PMS1003;14672;50.250;8.312;2024-02-15T07:15:35;37.00;32.33;16.00
27143;PMS1003;14672;50.250;8.312;2024-02-15T07:18:06;33.50;31.75;16.00
27143;PMS1003;14672;50.250;8.312;2024-02-15T07:20:35;35.25;33.75;18.00
27143;PMS1003;14672;50.250;8.312;2024-02-15T07:23:01;40.00;33.00;16.00
27143;PMS1003;14672;50.250;8.312;2024-02-15T07:25:28;36.75;31.75;14.75
27143;PMS1003;14672;50.250;8.312;2024-02-15T07:27:54;36.67;33.33;15.33
27143;PMS1003;14672;50.250;8.312;2024-02-15T07:30:21;29.50;27.50;15.50
27143;PMS1003;14672;50.250;8.312;2024-02-15T07:32:48;31.25;30.25;15.00
27143;PMS1003;14672;50.250;8.312;2024-02-15T07:35:14;31.00;30.00;15.50
27143;PMS1003;14672;50.250;8.312;2024-02-15T07:37:55;35.50;28.50;13.25
27143;PMS1003;14672;50.250;8.312;2024-02-15T07:40:23;28.25;28.25;13.50
27143;PMS1003;14672;50.250;8.312;2024-02-15T07:42:54;31.50;29.25;15.75
27143;PMS1003;14672;50.250;8.312;2024-02-15T07:45:22;27.75;26.25;13.25
27143;PMS1003;14672;50.250;8.312;2024-02-15T07:47:48;32.67;27.33;13.67
27143;PMS1003;14672;50.250;8.312;2024-02-15T07:50:15;30.67;30.00;13.33
27143;PMS1003;14672;50.250;8.312;2024-02-15T07:52:46;30.75;28.50;16.00
27143;PMS1003;14672;50.250;8.312;2024-02-15T07:55:13;30.50;29.50;14.50
27143;PMS1003;14672;50.250;8.312;2024-02-15T07:57:39;38.33;31.33;15.00
27143;PMS1003;14672;50.250;8.312;2024-02-15T08:00:05;30.33;27.67;13.00
27143;PMS1003;14672;50.250;8.312;2024-02-15T08:02:39;28.00;25.50;14.00
27143;PMS1003;14672;50.250;8.312;2024-02-15T08:05:09;31.50;27.50;16.00
27143;PMS1003;14672;50.250;8.312;2024-02-15T08:07:42;30.50;28.50;13.50
27143;PMS1003;14672;50.250;8.312;2024-02-15T08:10:10;28.75;26.25;13.50
27143;PMS1003;14672;50.250;8.312;2024-02-15T08:12:40;27.75;25.50;14.75
27143;PMS1003;14672;50.250;8.312;2024-02-15T08:15:10;41.50;31.00;16.00
27143;PMS1003;14672;50.250;8.312;2024-02-15T08:17:40;31.50;30.75;13.50
27143;PMS1003;14672;50.250;8.312;2024-02-15T08:20:08;30.25;27.50;13.00
27143;PMS1003;14672;50.250;8.312;2024-02-15T08:22:36;29.67;27.67;13.00
27143;PMS1003;14672;50.250;8.312;2024-02-15T08:27:39;27.75;24.75;14.75
27143;PMS1003;14672;50.250;8.312;2024-02-15T08:30:09;29.25;27.50;13.50
27143;PMS1003;14672;50.250;8.312;2024-02-15T08:32:37;29.75;28.75;15.00
27143;PMS1003;14672;50.250;8.312;2024-02-15T08:35:05;27.75;25.50;14.00
27143;PMS1003;14672;50.250;8.312;2024-02-15T08:37:33;30.75;25.25;12.50
27143;PMS1003;14672;50.250;8.312;2024-02-15T08:40:07;26.75;22.75;12.00
27143;PMS1003;14672;50.250;8.312;2024-02-15T08:42:43;23.75;22.00;12.00
27143;PMS1003;14672;50.250;8.312;2024-02-15T08:45:11;25.25;24.50;13.00
27143;PMS1003;14672;50.250;8.312;2024-02-15T08:47:41;23.25;21.25;12.25
27143;PMS1003;14672;50.250;8.312;2024-02-15T08:50:08;28.25;26.75;13.75
27143;PMS1003;14672;50.250;8.312;2024-02-15T08:52:37;25.00;22.25;11.00
27143;PMS1003;14672;50.250;8.312;2024-02-15T08:55:07;26.50;24.50;13.00
27143;PMS1003;14672;50.250;8.312;2024-02-15T08:57:35;26.50;25.00;14.75
27143;PMS1003;14672;50.250;8.312;2024-02-15T09:00:03;25.25;23.75;12.00
27143;PMS1003;14672;50.250;8.312;2024-02-15T09:02:38;26.00;25.00;11.50
27143;PMS1003;14672;50.250;8.312;2024-02-15T09:05:14;24.00;22.00;11.50
27143;PMS1003;14672;50.250;8.312;2024-02-15T09:07:43;29.25;26.25;14.75
27143;PMS1003;14672;50.250;8.312;2024-02-15T09:10:13;28.25;27.50;13.00
27143;PMS1003;14672;50.250;8.312;2024-02-15T09:12:42;25.00;24.25;11.50
27143;PMS1003;14672;50.250;8.312;2024-02-15T09:15:12;30.50;27.25;16.00
27143;PMS1003;14672;50.250;8.312;2024-02-15T09:17:42;27.75;26.25;12.75
27143;PMS1003;14672;50.250;8.312;2024-02-15T09:20:11;28.00;24.50;13.50
27143;PMS1003;14672;50.250;8.312;2024-02-15T09:22:52;30.50;27.75;14.00
27143;PMS1003;14672;50.250;8.312;2024-02-15T09:25:19;26.50;26.50;14.50
27143;PMS1003;14672;50.250;8.312;2024-02-15T09:27:50;31.00;27.00;12.50
27143;PMS1003;14672;50.250;8.312;2024-02-15T09:30:17;28.75;26.25;12.75
27143;PMS1003;14672;50.250;8.312;2024-02-15T09:32:43;24.50;23.75;12.75
27143;PMS1003;14672;50.250;8.312;2024-02-15T09:35:10;28.00;25.75;12.50
27143;PMS1003;14672;50.250;8.312;2024-02-15T09:37:37;26.75;25.25;12.75
27143;PMS1003;14672;50.250;8.312;2024-02-15T09:40:12;30.75;27.50;13.75
27143;PMS1003;14672;50.250;8.312;2024-02-15T09:42:40;32.50;27.25;12.75
27143;PMS1003;14672;50.250;8.312;2024-02-15T09:45:06;26.50;25.75;15.25
27143;PMS1003;14672;50.250;8.312;2024-02-15T09:47:37;31.00;31.00;14.50
27143;PMS1003;14672;50.250;8.312;2024-02-15T09:50:14;24.25;23.25;13.75
27143;PMS1003;14672;50.250;8.312;2024-02-15T09:52:45;28.00;26.25;14.25
27143;PMS1003;14672;50.250;8.312;2024-02-15T09:55:15;25.75;25.25;14.00
27143;PMS1003;14672;50.250;8.312;2024-02-15T09:57:42;33.00;27.50;13.75
27143;PMS1003;14672;50.250;8.312;2024-02-15T10:00:13;32.50;25.50;14.00
27143;PMS1003;14672;50.250;8.312;2024-02-15T10:02:41;21.50;21.50;12.00
27143;PMS1003;14672;50.250;8.312;2024-02-15T10:05:16;30.00;26.25;13.00
27143;PMS1003;14672;50.250;8.312;2024-02-15T10:07:43;25.00;25.00;13.00
27143;PMS1003;14672;50.250;8.312;2024-02-15T10:10:28;24.75;23.50;12.25
27143;PMS1003;14672;50.250;8.312;2024-02-15T10:12:54;23.50;22.25;11.50
27143;PMS1003;14672;50.250;8.312;2024-02-15T10:15:27;22.50;21.50;10.00
27143;PMS1003;14672;50.250;8.312;2024-02-15T10:18:09;26.75;22.25;9.50
27143;PMS1003;14672;50.250;8.312;2024-02-15T10:20:37;23.75;22.50;12.00
27143;PMS1003;14672;50.250;8.312;2024-02-15T10:25:34;29.25;24.00;12.00
27143;PMS1003;14672;50.250;8.312;2024-02-15T10:28:05;21.50;20.25;10.00
27143;PMS1003;14672;50.250;8.312;2024-02-15T10:30:41;21.25;19.75;10.25
27143;PMS1003;14672;50.250;8.312;2024-02-15T10:33:09;22.00;20.50;10.00
27143;PMS1003;14672;50.250;8.312;2024-02-15T10:35:35;22.25;19.75;9.25
27143;PMS1003;14672;50.250;8.312;2024-02-15T10:38:05;22.00;20.75;10.00
27143;PMS1003;14672;50.250;8.312;2024-02-15T10:40:38;27.00;24.25;9.75
27143;PMS1003;14672;50.250;8.312;2024-02-15T10:43:07;22.50;20.50;10.00
27143;PMS1003;14672;50.250;8.312;2024-02-15T10:45:38;25.00;23.00;11.25
27143;PMS1003;14672;50.250;8.312;2024-02-15T10:48:07;25.00;21.50;11.50
27143;PMS1003;14672;50.250;8.312;2024-02-15T10:50:39;20.25;19.75;9.75
27143;PMS1003;14672;50.250;8.312;2024-02-15T10:58:40;24.50;17.25;8.75
27143;PMS1003;14672;50.250;8.312;2024-02-15T11:01:16;18.75;18.25;9.25
27143;PMS1003;14672;50.250;8.312;2024-02-15T11:03:57;20.75;20.75;9.50
27143;PMS1003;14672;50.250;8.312;2024-02-15T11:06:28;16.75;16.75;9.00
27143;PMS1003;14672;50.250;8.312;2024-02-15T11:08:58;16.50;16.00;8.00
27143;PMS1003;14672;50.250;8.312;2024-02-15T11:11:25;18.50;16.75;6.50
27143;PMS1003;14672;50.250;8.312;2024-02-15T11:16:48;25.25;22.50;9.00
27143;PMS1003;14672;50.250;8.312;2024-02-15T11:22:00;21.00;19.25;10.50
27143;PMS1003;14672;50.250;8.312;2024-02-15T11:24:30;21.75;21.75;12.00
27143;PMS1003;14672;50.250;8.312;2024-02-15T11:27:05;24.75;23.75;10.75
27143;PMS1003;14672;50.250;8.312;2024-02-15T11:35:09;20.00;18.00;7.50
27143;PMS1003;14672;50.250;8.312;2024-02-15T11:40:18;20.25;18.25;9.00
27143;PMS1003;14672;50.250;8.312;2024-02-15T11:43:09;15.50;14.50;8.00
27143;PMS1003;14672;50.250;8.312;2024-02-15T11:45:58;14.75;14.75;8.00
27143;PMS1003;14672;50.250;8.312;2024-02-15T11:48:25;15.75;14.50;6.25
27143;PMS1003;14672;50.250;8.312;2024-02-15T11:50:51;15.33;15.00;7.00
27143;PMS1003;14672;50.250;8.312;2024-02-15T11:53:17;18.33;15.33;6.67
27143;PMS1003;14672;50.250;8.312;2024-02-15T11:55:43;14.75;12.75;6.75
27143;PMS1003;14672;50.250;8.312;2024-02-15T11:58:10;13.25;12.50;6.00
27143;PMS1003;14672;50.250;8.312;2024-02-15T12:00:36;12.00;12.00;6.00
27143;PMS1003;14672;50.250;8.312;2024-02-15T12:03:21;9.75;9.75;4.00
27143;PMS1003;14672;50.250;8.312;2024-02-15T12:06:07;12.00;11.75;4.00
27143;PMS1003;14672;50.250;8.312;2024-02-15T12:08:52;13.00;12.00;6.00
27143;PMS1003;14672;50.250;8.312;2024-02-15T12:11:41;11.25;11.25;4.00
27143;PMS1003;14672;50.250;8.312;2024-02-15T12:14:25;9.25;9.25;4.00
27143;PMS1003;14672;50.250;8.312;2024-02-15T12:17:13;12.75;12.50;6.00
27143;PMS1003;14672;50.250;8.312;2024-02-15T12:20:02;12.25;10.00;4.00
27143;PMS1003;14672;50.250;8.312;2024-02-15T12:22:46;10.75;10.75;4.00
27143;PMS1003;14672;50.250;8.312;2024-02-15T12:25:14;10.00;10.00;4.50
27143;PMS1003;14672;50.250;8.312;2024-02-15T12:27:42;14.00;12.50;6.00
27143;PMS1003;14672;50.250;8.312;2024-02-15T12:30:17;16.00;12.75;5.75
27143;PMS1003;14672;50.250;8.312;2024-02-15T12:32:48;16.50;14.75;4.50
27143;PMS1003;14672;50.250;8.312;2024-02-15T12:35:19;11.75;11.75;4.00
27143;PMS1003;14672;50.250;8.312;2024-02-15T12:37:47;16.00;12.50;5.50
27143;PMS1003;14672;50.250;8.312;2024-02-15T12:40:34;15.25;13.25;5.75
27143;PMS1003;14672;50.250;8.312;2024-02-15T12:43:04;14.75;12.50;4.25
27143;PMS1003;14672;50.250;8.312;2024-02-15T12:45:31;11.50;11.50;4.00
27143;PMS1003;14672;50.250;8.312;2024-02-15T12:48:03;12.50;12.25;5.75
27143;PMS1003;14672;50.250;8.312;2024-02-15T12:50:33;10.00;10.00;4.00
27143;PMS1003;14672;50.250;8.312;2024-02-15T12:53:00;11.75;10.00;4.50
27143;PMS1003;14672;50.250;8.312;2024-02-15T12:55:28;12.00;12.00;4.50
27143;PMS1003;14672;50.250;8.312;2024-02-15T12:58:05;12.75;12.75;4.00
27143;PMS1003;14672;50.250;8.312;2024-02-15T13:00:38;11.75;11.00;4.50
27143;PMS1003;14672;50.250;8.312;2024-02-15T13:03:08;11.25;10.50;4.00
27143;PMS1003;14672;50.250;8.312;2024-02-15T13:05:40;11.25;10.00;5.00
27143;PMS1003;14672;50.250;8.312;2024-02-15T13:08:06;12.33;10.33;3.67
27143;PMS1003;14672;50.250;8.312;2024-02-15T13:10:35;12.25;12.00;4.00
27143;PMS1003;14672;50.250;8.312;2024-02-15T13:13:02;10.00;10.00;5.75
27143;PMS1003;14672;50.250;8.312;2024-02-15T13:15:28;12.33;10.33;4.00
27143;PMS1003;14672;50.250;8.312;2024-02-15T13:17:58;8.75;8.75;2.75
27143;PMS1003;14672;50.250;8.312;2024-02-15T13:20:25;12.25;9.75;2.75
27143;PMS1003;14672;50.250;8.312;2024-02-15T13:23:04;11.75;10.50;3.00
27143;PMS1003;14672;50.250;8.312;2024-02-15T13:25:55;8.75;8.75;3.50
27143;PMS1003;14672;50.250;8.312;2024-02-15T13:28:22;9.25;9.25;2.75
27143;PMS1003;14672;50.250;8.312;2024-02-15T13:30:49;9.00;9.00;2.75
27143;PMS1003;14672;50.250;8.312;2024-02-15T13:33:19;9.25;8.75;3.75
27143;PMS1003;14672;50.250;8.312;2024-02-15T13:35:45;9.25;8.75;2.75
27143;PMS1003;14672;50.250;8.312;2024-02-15T13:38:11;9.00;9.00;4.00
27143;PMS1003;14672;50.250;8.312;2024-02-15T13:40:47;8.25;8.25;2.75
27143;PMS1003;14672;50.250;8.312;2024-02-15T13:43:17;8.75;8.75;2.75
27143;PMS1003;14672;50.250;8.312;2024-02-15T13:45:43;9.00;8.75;2.75
27143;PMS1003;14672;50.250;8.312;2024-02-15T13:48:10;8.00;7.50;2.75
27143;PMS1003;14672;50.250;8.312;2024-02-15T13:50:41;10.00;8.75;2.75
27143;PMS1003;14672;50.250;8.312;2024-02-15T13:53:07;10.25;9.50;4.00
27143;PMS1003;14672;50.250;8.312;2024-02-15T13:55:38;9.50;9.00;2.75
27143;PMS1003;14672;50.250;8.312;2024-02-15T13:58:04;7.00;7.00;2.75
27143;PMS1003;14672;50.250;8.312;2024-02-15T14:00:33;8.50;7.25;2.75
27143;PMS1003;14672;50.250;8.312;2024-02-15T14:03:02;7.00;7.00;3.00
27143;PMS1003;14672;50.250;8.312;2024-02-15T14:05:31;5.75;5.75;1.25
27143;PMS1003;14672;50.250;8.312;2024-02-15T14:07:58;7.00;7.00;2.75
27143;PMS1003;14672;50.250;8.312;2024-02-15T14:10:31;9.25;9.25;3.50
27143;PMS1003;14672;50.250;8.312;2024-02-15T14:13:00;9.75;8.75;2.75
27143;PMS1003;14672;50.250;8.312;2024-02-15T14:15:27;7.00;7.00;2.50
27143;PMS1003;14672;50.250;8.312;2024-02-15T14:17:54;7.00;7.00;2.75
27143;PMS1003;14672;50.250;8.312;2024-02-15T14:20:21;6.50;6.50;2.75
27143;PMS1003;14672;50.250;8.312;2024-02-15T14:22:49;9.50;8.50;2.75
27143;PMS1003;14672;50.250;8.312;2024-02-15T14:25:21;13.00;11.50;4.00
27143;PMS1003;14672;50.250;8.312;2024-02-15T14:27:56;9.25;7.00;3.00
27143;PMS1003;14672;50.250;8.312;2024-02-15T14:30:23;8.50;7.50;4.00